Accueil
METAR-TAF:

METAR-TAF

Aéroports :

Gibraltar, Gibraltar

Aéroport international de Gibraltar

latitude: 36-09N, longitude: 005-21W, altitude: 5 m

Observation

Le bulletin a été fait il y a 54 minutes, à 21:50 UTC
Vent 6 kt de est/nord-est
Température 18°C
Humidité 77%
Pression 1016 hPa
Visibilité 10 km ou plus

METAR: LXGB 242150Z AUTO 07006KT 9999 // BKN036/// 18/14 Q1016

Heure: 00:44 (22:44 UTC)

Prévision

Le bulletin a été fait il y a 9 heures et 15 minutes, à 13:29 UTC
Prévision valable du 24 à 15 UTC au 24 à 22 UTC
Vent 12 kt de est
Visibilité 10 km ou plus
Quelques nuages à une hauteur de 4500 ft
Evoluant progressivement
du 24 à 15 UTC au 24 à 18 UTC
Vent 12 kt de sud
Probabilité 30%
du 24 à 15 UTC au 24 à 22 UTC
Visibilité: 7000 m
Nuages épars à une hauteur de 3000 ft, Cumulonimbus.
brume sèche

TAF: LXGB 241329Z 2415/2422 10012KT 9999 FEW045 BECMG 2415/2418 17012KT 520002 PROB30 2415/2422 7000 HZ SCT030CB

Observations et prévisions météorologiques de plus de 4000 aéroports (messages METAR et TAF).

Les stations disponibles sont représentées par des disques jaunes et rouges sur la carte.

Passer la souris dessus pour voir le nom de la station.

Cliquer dessus pour voir les observations et prévisions météorologiques.

Pour changer de carte: cliquez sur les boutons verts avec une croix noire pour zoomer, sur le bouton vert avec un tiret pour effectuer un zoom arrière, ou sur les flèches vertes pour les cartes adjacentes.


METAR-TAF: